sensor_id;sensor_type;location;lat;lon;timestamp;pressure;altitude;pressure_sealevel;temperature;humidity
58967;BME280;44744;51.894;5.080;2022-10-16T00:00:19;101042.67;;;12.82;74.18
58967;BME280;44744;51.894;5.080;2022-10-16T00:01:22;101042.39;;;12.80;74.23
58967;BME280;44744;51.894;5.080;2022-10-16T00:02:23;101045.20;;;12.81;74.36
58967;BME280;44744;51.894;5.080;2022-10-16T00:03:23;101052.52;;;12.80;74.45
58967;BME280;44744;51.894;5.080;2022-10-16T00:04:23;101047.77;;;12.79;74.36
58967;BME280;44744;51.894;5.080;2022-10-16T00:05:24;101051.91;;;12.78;74.39
58967;BME280;44744;51.894;5.080;2022-10-16T00:06:25;101054.90;;;12.79;74.42
58967;BME280;44744;51.894;5.080;2022-10-16T00:07:26;101054.70;;;12.79;74.46
58967;BME280;44744;51.894;5.080;2022-10-16T00:08:27;101049.39;;;12.79;74.59
58967;BME280;44744;51.894;5.080;2022-10-16T00:09:28;101054.46;;;12.80;74.54
58967;BME280;44744;51.894;5.080;2022-10-16T00:10:28;101050.40;;;12.80;74.65
58967;BME280;44744;51.894;5.080;2022-10-16T00:11:33;101050.20;;;12.80;74.78
58967;BME280;44744;51.894;5.080;2022-10-16T00:12:33;101047.55;;;12.80;74.54
58967;BME280;44744;51.894;5.080;2022-10-16T00:13:36;101043.27;;;12.80;74.65
58967;BME280;44744;51.894;5.080;2022-10-16T00:14:36;101041.13;;;12.80;74.67
58967;BME280;44744;51.894;5.080;2022-10-16T00:15:37;101042.70;;;12.81;74.81
58967;BME280;44744;51.894;5.080;2022-10-16T00:16:37;101042.15;;;12.81;74.73
58967;BME280;44744;51.894;5.080;2022-10-16T00:17:38;101039.66;;;12.81;74.68
58967;BME280;44744;51.894;5.080;2022-10-16T00:18:38;101041.61;;;12.82;74.84
58967;BME280;44744;51.894;5.080;2022-10-16T00:19:39;101044.08;;;12.82;74.84
58967;BME280;44744;51.894;5.080;2022-10-16T00:20:39;101049.73;;;12.83;74.83
58967;BME280;44744;51.894;5.080;2022-10-16T00:21:40;101045.10;;;12.83;74.82
58967;BME280;44744;51.894;5.080;2022-10-16T00:22:40;101044.70;;;12.83;74.91
58967;BME280;44744;51.894;5.080;2022-10-16T00:23:41;101045.92;;;12.84;74.90
58967;BME280;44744;51.894;5.080;2022-10-16T00:24:41;101044.87;;;12.83;74.99
58967;BME280;44744;51.894;5.080;2022-10-16T00:25:41;101038.66;;;12.84;74.98
58967;BME280;44744;51.894;5.080;2022-10-16T00:26:42;101037.59;;;12.84;74.91
58967;BME280;44744;51.894;5.080;2022-10-16T00:27:42;101037.05;;;12.84;75.02
58967;BME280;44744;51.894;5.080;2022-10-16T00:28:46;101042.36;;;12.84;75.13
58967;BME280;44744;51.894;5.080;2022-10-16T00:29:50;101038.65;;;12.83;75.07
58967;BME280;44744;51.894;5.080;2022-10-16T00:30:50;101041.33;;;12.83;75.09
58967;BME280;44744;51.894;5.080;2022-10-16T00:31:50;101040.58;;;12.84;75.25
58967;BME280;44744;51.894;5.080;2022-10-16T00:32:51;101039.89;;;12.84;75.13
58967;BME280;44744;51.894;5.080;2022-10-16T00:33:51;101040.58;;;12.84;75.28
58967;BME280;44744;51.894;5.080;2022-10-16T00:34:52;101040.37;;;12.85;75.30
58967;BME280;44744;51.894;5.080;2022-10-16T00:35:52;101035.95;;;12.84;75.41
58967;BME280;44744;51.894;5.080;2022-10-16T00:36:52;101040.73;;;12.85;75.43
58967;BME280;44744;51.894;5.080;2022-10-16T00:37:52;101038.73;;;12.85;75.58
58967;BME280;44744;51.894;5.080;2022-10-16T00:38:55;101042.48;;;12.85;75.60
58967;BME280;44744;51.894;5.080;2022-10-16T00:39:56;101041.61;;;12.85;75.56
58967;BME280;44744;51.894;5.080;2022-10-16T00:40:56;101046.86;;;12.86;75.61
58967;BME280;44744;51.894;5.080;2022-10-16T00:41:57;101047.94;;;12.86;75.65
58967;BME280;44744;51.894;5.080;2022-10-16T00:42:57;101051.98;;;12.86;75.59
58967;BME280;44744;51.894;5.080;2022-10-16T00:44:00;101052.15;;;12.86;75.78
58967;BME280;44744;51.894;5.080;2022-10-16T00:45:00;101053.35;;;12.87;75.56
58967;BME280;44744;51.894;5.080;2022-10-16T00:46:03;101053.70;;;12.87;75.75
58967;BME280;44744;51.894;5.080;2022-10-16T00:47:07;101050.98;;;12.88;75.79
58967;BME280;44744;51.894;5.080;2022-10-16T00:48:11;101046.13;;;12.89;75.84
58967;BME280;44744;51.894;5.080;2022-10-16T00:49:15;101045.23;;;12.89;75.78
58967;BME280;44744;51.894;5.080;2022-10-16T00:50:22;101046.25;;;12.90;75.76
58967;BME280;44744;51.894;5.080;2022-10-16T00:51:30;101046.53;;;12.91;75.83
58967;BME280;44744;51.894;5.080;2022-10-16T00:52:33;101047.78;;;12.91;75.88
58967;BME280;44744;51.894;5.080;2022-10-16T00:53:33;101050.00;;;12.92;75.76
58967;BME280;44744;51.894;5.080;2022-10-16T00:54:34;101048.77;;;12.92;75.83
58967;BME280;44744;51.894;5.080;2022-10-16T00:55:35;101052.50;;;12.92;75.87
58967;BME280;44744;51.894;5.080;2022-10-16T00:56:36;101050.30;;;12.93;75.90
58967;BME280;44744;51.894;5.080;2022-10-16T00:57:37;101051.37;;;12.93;75.84
58967;BME280;44744;51.894;5.080;2022-10-16T00:58:37;101049.17;;;12.94;75.93
58967;BME280;44744;51.894;5.080;2022-10-16T00:59:41;101053.09;;;12.94;76.00
58967;BME280;44744;51.894;5.080;2022-10-16T01:00:42;101053.95;;;12.94;75.96
58967;BME280;44744;51.894;5.080;2022-10-16T01:01:42;101053.24;;;12.95;75.98
58967;BME280;44744;51.894;5.080;2022-10-16T01:02:43;101049.65;;;12.95;75.97
58967;BME280;44744;51.894;5.080;2022-10-16T01:03:43;101052.45;;;12.95;75.99
58967;BME280;44744;51.894;5.080;2022-10-16T01:04:50;101053.85;;;12.96;76.01
58967;BME280;44744;51.894;5.080;2022-10-16T01:06:09;101055.43;;;12.96;76.05
58967;BME280;44744;51.894;5.080;2022-10-16T01:08:58;101052.27;;;12.96;76.02
58967;BME280;44744;51.894;5.080;2022-10-16T01:13:36;101053.73;;;12.95;76.16
58967;BME280;44744;51.894;5.080;2022-10-16T01:15:27;101053.77;;;12.94;76.43
58967;BME280;44744;51.894;5.080;2022-10-16T01:16:35;101055.48;;;12.92;76.36
58967;BME280;44744;51.894;5.080;2022-10-16T01:17:51;101052.71;;;12.91;76.39
58967;BME280;44744;51.894;5.080;2022-10-16T01:19:12;101055.85;;;12.92;76.35
58967;BME280;44744;51.894;5.080;2022-10-16T01:20:35;101056.75;;;12.92;76.43
58967;BME280;44744;51.894;5.080;2022-10-16T01:21:43;101055.70;;;12.92;76.49
58967;BME280;44744;51.894;5.080;2022-10-16T01:23:33;101054.81;;;12.92;76.46
58967;BME280;44744;51.894;5.080;2022-10-16T01:25:53;101051.11;;;12.91;76.61
58967;BME280;44744;51.894;5.080;2022-10-16T01:27:08;101046.96;;;12.93;76.65
58967;BME280;44744;51.894;5.080;2022-10-16T01:28:11;101043.71;;;12.94;76.40
58967;BME280;44744;51.894;5.080;2022-10-16T01:31:04;101043.59;;;12.93;76.45
58967;BME280;44744;51.894;5.080;2022-10-16T01:32:14;101043.92;;;12.93;76.58
58967;BME280;44744;51.894;5.080;2022-10-16T01:33:21;101039.20;;;12.95;76.65
58967;BME280;44744;51.894;5.080;2022-10-16T01:34:37;101038.64;;;12.95;76.59
58967;BME280;44744;51.894;5.080;2022-10-16T01:35:41;101034.54;;;12.95;76.59
58967;BME280;44744;51.894;5.080;2022-10-16T01:36:51;101035.98;;;12.95;76.52
58967;BME280;44744;51.894;5.080;2022-10-16T01:38:56;101037.55;;;12.95;76.65
58967;BME280;44744;51.894;5.080;2022-10-16T01:40:03;101035.89;;;12.96;76.57
58967;BME280;44744;51.894;5.080;2022-10-16T01:41:27;101032.53;;;12.96;76.53
58967;BME280;44744;51.894;5.080;2022-10-16T01:42:35;101034.96;;;12.97;76.62
58967;BME280;44744;51.894;5.080;2022-10-16T01:43:41;101036.96;;;12.96;76.59
58967;BME280;44744;51.894;5.080;2022-10-16T01:44:43;101035.58;;;12.96;76.59
58967;BME280;44744;51.894;5.080;2022-10-16T01:45:47;101036.11;;;12.96;76.62
58967;BME280;44744;51.894;5.080;2022-10-16T01:46:50;101039.85;;;12.95;76.65
58967;BME280;44744;51.894;5.080;2022-10-16T01:47:53;101041.39;;;12.96;76.62
58967;BME280;44744;51.894;5.080;2022-10-16T01:48:53;101040.84;;;12.97;76.59
58967;BME280;44744;51.894;5.080;2022-10-16T01:49:56;101043.13;;;12.97;76.66
58967;BME280;44744;51.894;5.080;2022-10-16T01:51:05;101044.73;;;12.97;76.60
58967;BME280;44744;51.894;5.080;2022-10-16T01:52:10;101039.09;;;12.96;76.68
58967;BME280;44744;51.894;5.080;2022-10-16T01:53:13;101046.36;;;12.96;76.59
58967;BME280;44744;51.894;5.080;2022-10-16T01:54:16;101045.46;;;12.97;76.75
58967;BME280;44744;51.894;5.080;2022-10-16T01:55:22;101044.76;;;12.97;76.72
58967;BME280;44744;51.894;5.080;2022-10-16T01:56:25;101039.39;;;12.97;76.66
58967;BME280;44744;51.894;5.080;2022-10-16T01:57:27;101036.94;;;12.97;76.75
58967;BME280;44744;51.894;5.080;2022-10-16T01:58:30;101035.94;;;12.96;76.76
58967;BME280;44744;51.894;5.080;2022-10-16T01:59:37;101040.95;;;12.95;76.90
58967;BME280;44744;51.894;5.080;2022-10-16T02:00:42;101045.23;;;12.95;76.82
58967;BME280;44744;51.894;5.080;2022-10-16T02:01:47;101047.94;;;12.94;76.70
58967;BME280;44744;51.894;5.080;2022-10-16T02:02:53;101049.20;;;12.94;76.82
58967;BME280;44744;51.894;5.080;2022-10-16T02:03:57;101048.56;;;12.92;76.93
58967;BME280;44744;51.894;5.080;2022-10-16T02:05:05;101052.97;;;12.93;76.87
58967;BME280;44744;51.894;5.080;2022-10-16T02:06:08;101055.85;;;12.92;76.84
58967;BME280;44744;51.894;5.080;2022-10-16T02:07:09;101053.16;;;12.90;77.04
58967;BME280;44744;51.894;5.080;2022-10-16T02:08:10;101055.27;;;12.90;77.00
58967;BME280;44744;51.894;5.080;2022-10-16T02:09:12;101056.38;;;12.90;76.93
58967;BME280;44744;51.894;5.080;2022-10-16T02:10:12;101058.27;;;12.91;77.06
58967;BME280;44744;51.894;5.080;2022-10-16T02:11:12;101059.56;;;12.90;77.05
58967;BME280;44744;51.894;5.080;2022-10-16T02:12:19;101058.02;;;12.89;77.11
58967;BME280;44744;51.894;5.080;2022-10-16T02:14:41;101061.11;;;12.88;77.14
58967;BME280;44744;51.894;5.080;2022-10-16T02:15:41;101067.67;;;12.88;77.15
58967;BME280;44744;51.894;5.080;2022-10-16T02:16:45;101066.95;;;12.88;77.23
58967;BME280;44744;51.894;5.080;2022-10-16T02:17:45;101067.02;;;12.87;77.14
58967;BME280;44744;51.894;5.080;2022-10-16T02:18:46;101068.64;;;12.86;77.23
58967;BME280;44744;51.894;5.080;2022-10-16T02:19:49;101066.01;;;12.86;77.24
58967;BME280;44744;51.894;5.080;2022-10-16T02:20:57;101070.00;;;12.87;77.31
58967;BME280;44744;51.894;5.080;2022-10-16T02:22:08;101065.60;;;12.87;77.33
58967;BME280;44744;51.894;5.080;2022-10-16T02:23:12;101065.38;;;12.85;77.27
58967;BME280;44744;51.894;5.080;2022-10-16T02:24:36;101067.47;;;12.86;77.44
58967;BME280;44744;51.894;5.080;2022-10-16T02:25:41;101065.65;;;12.84;77.46
58967;BME280;44744;51.894;5.080;2022-10-16T02:26:49;101060.61;;;12.81;77.47
58967;BME280;44744;51.894;5.080;2022-10-16T02:27:57;101057.27;;;12.81;77.51
58967;BME280;44744;51.894;5.080;2022-10-16T02:29:04;101055.29;;;12.81;77.58
58967;BME280;44744;51.894;5.080;2022-10-16T02:31:29;101055.61;;;12.82;77.54
58967;BME280;44744;51.894;5.080;2022-10-16T02:32:32;101056.16;;;12.82;77.66
58967;BME280;44744;51.894;5.080;2022-10-16T02:33:33;101053.10;;;12.82;77.57
58967;BME280;44744;51.894;5.080;2022-10-16T02:34:34;101055.95;;;12.82;77.59
58967;BME280;44744;51.894;5.080;2022-10-16T02:35:37;101059.31;;;12.79;77.63
58967;BME280;44744;51.894;5.080;2022-10-16T02:36:40;101057.91;;;12.79;77.51
58967;BME280;44744;51.894;5.080;2022-10-16T02:37:42;101062.67;;;12.80;77.65
58967;BME280;44744;51.894;5.080;2022-10-16T02:38:43;101061.94;;;12.80;77.69
58967;BME280;44744;51.894;5.080;2022-10-16T02:39:43;101060.98;;;12.81;77.68
58967;BME280;44744;51.894;5.080;2022-10-16T02:40:44;101063.28;;;12.81;77.70
58967;BME280;44744;51.894;5.080;2022-10-16T02:41:45;101064.00;;;12.81;77.78
58967;BME280;44744;51.894;5.080;2022-10-16T02:42:50;101068.02;;;12.82;77.57
58967;BME280;44744;51.894;5.080;2022-10-16T02:43:51;101064.34;;;12.81;77.77
58967;BME280;44744;51.894;5.080;2022-10-16T02:44:51;101064.71;;;12.81;77.60
58967;BME280;44744;51.894;5.080;2022-10-16T02:45:51;101065.98;;;12.80;77.72
58967;BME280;44744;51.894;5.080;2022-10-16T02:46:51;101072.29;;;12.82;77.91
58967;BME280;44744;51.894;5.080;2022-10-16T02:47:52;101072.73;;;12.80;77.82
58967;BME280;44744;51.894;5.080;2022-10-16T02:48:52;101073.24;;;12.81;77.96
58967;BME280;44744;51.894;5.080;2022-10-16T02:49:53;101071.86;;;12.80;77.95
58967;BME280;44744;51.894;5.080;2022-10-16T02:50:53;101075.27;;;12.79;78.05
58967;BME280;44744;51.894;5.080;2022-10-16T02:51:53;101074.96;;;12.79;78.16
58967;BME280;44744;51.894;5.080;2022-10-16T02:52:53;101077.08;;;12.79;78.06
58967;BME280;44744;51.894;5.080;2022-10-16T02:53:54;101069.66;;;12.79;78.12
58967;BME280;44744;51.894;5.080;2022-10-16T02:54:55;101070.57;;;12.78;78.22
58967;BME280;44744;51.894;5.080;2022-10-16T02:55:55;101067.00;;;12.78;78.08
58967;BME280;44744;51.894;5.080;2022-10-16T02:56:55;101068.26;;;12.78;78.05
58967;BME280;44744;51.894;5.080;2022-10-16T02:57:55;101062.56;;;12.78;78.16
58967;BME280;44744;51.894;5.080;2022-10-16T02:58:56;101061.86;;;12.78;78.25
58967;BME280;44744;51.894;5.080;2022-10-16T02:59:56;101057.58;;;12.79;78.08
58967;BME280;44744;51.894;5.080;2022-10-16T03:00:56;101058.79;;;12.79;78.09
58967;BME280;44744;51.894;5.080;2022-10-16T03:01:57;101060.38;;;12.79;78.13
58967;BME280;44744;51.894;5.080;2022-10-16T03:02:57;101052.96;;;12.79;78.29
58967;BME280;44744;51.894;5.080;2022-10-16T03:03:57;101051.93;;;12.78;78.20
58967;BME280;44744;51.894;5.080;2022-10-16T03:04:57;101048.21;;;12.78;78.24
58967;BME280;44744;51.894;5.080;2022-10-16T03:05:58;101052.94;;;12.79;78.23
58967;BME280;44744;51.894;5.080;2022-10-16T03:06:58;101049.63;;;12.78;78.16
58967;BME280;44744;51.894;5.080;2022-10-16T03:07:58;101054.98;;;12.78;78.11
58967;BME280;44744;51.894;5.080;2022-10-16T03:08:58;101049.50;;;12.77;78.17
58967;BME280;44744;51.894;5.080;2022-10-16T03:09:59;101053.58;;;12.77;78.14
58967;BME280;44744;51.894;5.080;2022-10-16T03:10:59;101056.95;;;12.77;78.10
58967;BME280;44744;51.894;5.080;2022-10-16T03:12:00;101054.27;;;12.77;78.11
58967;BME280;44744;51.894;5.080;2022-10-16T03:13:00;101054.83;;;12.77;78.07
58967;BME280;44744;51.894;5.080;2022-10-16T03:14:00;101054.65;;;12.77;78.25
58967;BME280;44744;51.894;5.080;2022-10-16T03:15:00;101056.64;;;12.77;78.13
58967;BME280;44744;51.894;5.080;2022-10-16T03:16:04;101056.59;;;12.77;78.22
58967;BME280;44744;51.894;5.080;2022-10-16T03:17:04;101059.09;;;12.77;78.38
58967;BME280;44744;51.894;5.080;2022-10-16T03:18:06;101058.06;;;12.76;78.21
58967;BME280;44744;51.894;5.080;2022-10-16T03:19:06;101058.48;;;12.76;78.17
58967;BME280;44744;51.894;5.080;2022-10-16T03:20:07;101060.66;;;12.75;78.31
58967;BME280;44744;51.894;5.080;2022-10-16T03:21:07;101064.39;;;12.74;78.12
58967;BME280;44744;51.894;5.080;2022-10-16T03:22:07;101064.73;;;12.75;78.18
58967;BME280;44744;51.894;5.080;2022-10-16T03:23:08;101070.48;;;12.74;78.25
58967;BME280;44744;51.894;5.080;2022-10-16T03:24:08;101069.99;;;12.73;78.32
58967;BME280;44744;51.894;5.080;2022-10-16T03:25:08;101071.25;;;12.73;78.36
58967;BME280;44744;51.894;5.080;2022-10-16T03:26:10;101068.29;;;12.72;78.29
58967;BME280;44744;51.894;5.080;2022-10-16T03:27:10;101073.09;;;12.72;78.24
58967;BME280;44744;51.894;5.080;2022-10-16T03:28:10;101078.98;;;12.71;78.38
58967;BME280;44744;51.894;5.080;2022-10-16T03:29:11;101077.45;;;12.70;78.31
58967;BME280;44744;51.894;5.080;2022-10-16T03:30:11;101082.09;;;12.70;78.51
58967;BME280;44744;51.894;5.080;2022-10-16T03:31:12;101079.33;;;12.68;78.49
58967;BME280;44744;51.894;5.080;2022-10-16T03:32:12;101083.10;;;12.68;78.43
58967;BME280;44744;51.894;5.080;2022-10-16T03:33:12;101082.80;;;12.67;78.46
58967;BME280;44744;51.894;5.080;2022-10-16T03:34:13;101084.75;;;12.67;78.61
58967;BME280;44744;51.894;5.080;2022-10-16T03:35:13;101086.20;;;12.66;78.52
58967;BME280;44744;51.894;5.080;2022-10-16T03:36:13;101089.95;;;12.66;78.56
58967;BME280;44744;51.894;5.080;2022-10-16T03:37:13;101085.54;;;12.65;78.80
58967;BME280;44744;51.894;5.080;2022-10-16T03:38:14;101088.96;;;12.64;78.64
58967;BME280;44744;51.894;5.080;2022-10-16T03:39:14;101086.64;;;12.64;78.64
58967;BME280;44744;51.894;5.080;2022-10-16T03:40:15;101092.16;;;12.64;78.61
58967;BME280;44744;51.894;5.080;2022-10-16T03:41:15;101092.84;;;12.65;78.74
58967;BME280;44744;51.894;5.080;2022-10-16T03:42:15;101095.15;;;12.65;78.69
58967;BME280;44744;51.894;5.080;2022-10-16T03:43:16;101092.37;;;12.63;78.66
58967;BME280;44744;51.894;5.080;2022-10-16T03:44:16;101091.30;;;12.64;78.68
58967;BME280;44744;51.894;5.080;2022-10-16T03:45:16;101093.25;;;12.64;78.71
58967;BME280;44744;51.894;5.080;2022-10-16T03:46:17;101091.33;;;12.63;78.76
58967;BME280;44744;51.894;5.080;2022-10-16T03:47:17;101091.80;;;12.64;78.77
58967;BME280;44744;51.894;5.080;2022-10-16T03:48:19;101090.39;;;12.64;78.65
58967;BME280;44744;51.894;5.080;2022-10-16T03:49:19;101095.52;;;12.64;78.78
58967;BME280;44744;51.894;5.080;2022-10-16T03:50:19;101094.54;;;12.63;78.77
58967;BME280;44744;51.894;5.080;2022-10-16T03:51:19;101096.64;;;12.63;78.71
58967;BME280;44744;51.894;5.080;2022-10-16T03:52:20;101093.60;;;12.63;78.80
58967;BME280;44744;51.894;5.080;2022-10-16T03:53:20;101095.02;;;12.63;78.84
58967;BME280;44744;51.894;5.080;2022-10-16T03:54:20;101098.56;;;12.63;78.82
58967;BME280;44744;51.894;5.080;2022-10-16T03:55:21;101100.38;;;12.63;78.80
58967;BME280;44744;51.894;5.080;2022-10-16T03:56:21;101102.34;;;12.63;78.81
58967;BME280;44744;51.894;5.080;2022-10-16T03:57:21;101106.42;;;12.63;78.81
58967;BME280;44744;51.894;5.080;2022-10-16T03:58:21;101107.70;;;12.62;79.00
58967;BME280;44744;51.894;5.080;2022-10-16T03:59:22;101108.05;;;12.62;78.80
58967;BME280;44744;51.894;5.080;2022-10-16T04:00:22;101107.05;;;12.61;78.90
58967;BME280;44744;51.894;5.080;2022-10-16T04:01:22;101107.63;;;12.61;78.84
58967;BME280;44744;51.894;5.080;2022-10-16T04:02:23;101110.42;;;12.61;78.96
58967;BME280;44744;51.894;5.080;2022-10-16T04:03:23;101113.64;;;12.61;78.99
58967;BME280;44744;51.894;5.080;2022-10-16T04:04:23;101110.66;;;12.60;79.03
58967;BME280;44744;51.894;5.080;2022-10-16T04:05:23;101114.65;;;12.59;79.06
58967;BME280;44744;51.894;5.080;2022-10-16T04:06:24;101112.16;;;12.59;78.98
58967;BME280;44744;51.894;5.080;2022-10-16T04:07:24;101110.39;;;12.59;79.14
58967;BME280;44744;51.894;5.080;2022-10-16T04:08:24;101116.14;;;12.58;79.20
58967;BME280;44744;51.894;5.080;2022-10-16T04:09:25;101114.90;;;12.58;79.11
58967;BME280;44744;51.894;5.080;2022-10-16T04:10:26;101114.92;;;12.57;79.14
58967;BME280;44744;51.894;5.080;2022-10-16T04:11:26;101122.39;;;12.57;79.07
58967;BME280;44744;51.894;5.080;2022-10-16T04:12:27;101123.01;;;12.55;79.13
58967;BME280;44744;51.894;5.080;2022-10-16T04:13:27;101120.34;;;12.55;79.28
58967;BME280;44744;51.894;5.080;2022-10-16T04:14:28;101118.66;;;12.54;79.20
58967;BME280;44744;51.894;5.080;2022-10-16T04:15:28;101124.88;;;12.54;79.20
58967;BME280;44744;51.894;5.080;2022-10-16T04:16:28;101122.93;;;12.54;79.27
58967;BME280;44744;51.894;5.080;2022-10-16T04:17:28;101122.82;;;12.53;79.12
58967;BME280;44744;51.894;5.080;2022-10-16T04:18:29;101130.26;;;12.53;79.17
58967;BME280;44744;51.894;5.080;2022-10-16T04:19:29;101130.81;;;12.52;79.17
58967;BME280;44744;51.894;5.080;2022-10-16T04:20:29;101131.86;;;12.53;79.22
58967;BME280;44744;51.894;5.080;2022-10-16T04:21:29;101134.41;;;12.52;79.24
58967;BME280;44744;51.894;5.080;2022-10-16T04:22:30;101135.45;;;12.52;79.12
58967;BME280;44744;51.894;5.080;2022-10-16T04:23:30;101137.42;;;12.52;79.26
58967;BME280;44744;51.894;5.080;2022-10-16T04:24:30;101139.39;;;12.52;79.28
58967;BME280;44744;51.894;5.080;2022-10-16T04:25:31;101134.81;;;12.51;79.34
58967;BME280;44744;51.894;5.080;2022-10-16T04:26:31;101138.42;;;12.50;79.42
58967;BME280;44744;51.894;5.080;2022-10-16T04:27:31;101137.73;;;12.50;79.45
58967;BME280;44744;51.894;5.080;2022-10-16T04:28:31;101139.39;;;12.48;79.37
58967;BME280;44744;51.894;5.080;2022-10-16T04:29:32;101139.24;;;12.48;79.32
58967;BME280;44744;51.894;5.080;2022-10-16T04:30:32;101142.49;;;12.47;79.27
58967;BME280;44744;51.894;5.080;2022-10-16T04:31:33;101143.08;;;12.46;79.38
58967;BME280;44744;51.894;5.080;2022-10-16T04:32:33;101142.95;;;12.45;79.32
58967;BME280;44744;51.894;5.080;2022-10-16T04:33:33;101147.73;;;12.45;79.32
58967;BME280;44744;51.894;5.080;2022-10-16T04:34:34;101148.86;;;12.44;79.38
58967;BME280;44744;51.894;5.080;2022-10-16T04:35:34;101144.69;;;12.43;79.48
58967;BME280;44744;51.894;5.080;2022-10-16T04:36:34;101145.52;;;12.44;79.45
58967;BME280;44744;51.894;5.080;2022-10-16T04:37:35;101149.28;;;12.43;79.44
58967;BME280;44744;51.894;5.080;2022-10-16T04:38:35;101149.47;;;12.43;79.48
58967;BME280;44744;51.894;5.080;2022-10-16T04:39:35;101148.45;;;12.42;79.49
58967;BME280;44744;51.894;5.080;2022-10-16T04:40:35;101149.55;;;12.41;79.49
58967;BME280;44744;51.894;5.080;2022-10-16T04:41:36;101146.23;;;12.40;79.50
58967;BME280;44744;51.894;5.080;2022-10-16T04:42:36;101154.95;;;12.40;79.53
58967;BME280;44744;51.894;5.080;2022-10-16T04:43:36;101153.40;;;12.39;79.41
58967;BME280;44744;51.894;5.080;2022-10-16T04:44:36;101156.02;;;12.40;79.55
58967;BME280;44744;51.894;5.080;2022-10-16T04:45:39;101158.02;;;12.39;79.43
58967;BME280;44744;51.894;5.080;2022-10-16T04:46:39;101158.95;;;12.38;79.48
58967;BME280;44744;51.894;5.080;2022-10-16T04:47:39;101164.52;;;12.37;79.54
58967;BME280;44744;51.894;5.080;2022-10-16T04:48:40;101168.46;;;12.36;79.63
58967;BME280;44744;51.894;5.080;2022-10-16T04:49:40;101171.51;;;12.36;79.51
58967;BME280;44744;51.894;5.080;2022-10-16T04:50:41;101172.25;;;12.35;79.65
58967;BME280;44744;51.894;5.080;2022-10-16T04:51:41;101171.74;;;12.35;79.51
58967;BME280;44744;51.894;5.080;2022-10-16T04:52:46;101172.64;;;12.35;79.53
58967;BME280;44744;51.894;5.080;2022-10-16T04:53:51;101170.37;;;12.34;79.49
58967;BME280;44744;51.894;5.080;2022-10-16T04:54:51;101173.43;;;12.33;79.53
58967;BME280;44744;51.894;5.080;2022-10-16T04:55:52;101174.15;;;12.33;79.47
58967;BME280;44744;51.894;5.080;2022-10-16T04:56:54;101176.84;;;12.33;79.52
58967;BME280;44744;51.894;5.080;2022-10-16T04:57:55;101175.67;;;12.31;79.56
58967;BME280;44744;51.894;5.080;2022-10-16T04:58:55;101175.21;;;12.30;79.64
58967;BME280;44744;51.894;5.080;2022-10-16T04:59:55;101178.97;;;12.29;79.59
58967;BME280;44744;51.894;5.080;2022-10-16T05:00:56;101175.92;;;12.29;79.52
58967;BME280;44744;51.894;5.080;2022-10-16T05:01:56;101179.35;;;12.29;79.68
58967;BME280;44744;51.894;5.080;2022-10-16T05:02:56;101184.66;;;12.29;79.62
58967;BME280;44744;51.894;5.080;2022-10-16T05:03:56;101184.85;;;12.28;79.68
58967;BME280;44744;51.894;5.080;2022-10-16T05:04:57;101188.21;;;12.28;79.66
58967;BME280;44744;51.894;5.080;2022-10-16T05:05:58;101189.52;;;12.28;79.63
58967;BME280;44744;51.894;5.080;2022-10-16T05:06:58;101186.58;;;12.26;79.64
58967;BME280;44744;51.894;5.080;2022-10-16T05:07:59;101191.21;;;12.26;79.60
58967;BME280;44744;51.894;5.080;2022-10-16T05:08:59;101191.84;;;12.24;79.51
58967;BME280;44744;51.894;5.080;2022-10-16T05:09:59;101195.23;;;12.24;79.56
58967;BME280;44744;51.894;5.080;2022-10-16T05:11:00;101195.63;;;12.23;79.65
58967;BME280;44744;51.894;5.080;2022-10-16T05:12:00;101197.43;;;12.23;79.70
58967;BME280;44744;51.894;5.080;2022-10-16T05:13:00;101195.32;;;12.22;79.55
58967;BME280;44744;51.894;5.080;2022-10-16T05:14:01;101198.41;;;12.21;79.59
58967;BME280;44744;51.894;5.080;2022-10-16T05:15:02;101202.69;;;12.21;79.64
58967;BME280;44744;51.894;5.080;2022-10-16T05:16:03;101200.21;;;12.20;79.74
58967;BME280;44744;51.894;5.080;2022-10-16T05:17:03;101203.08;;;12.20;79.58
58967;BME280;44744;51.894;5.080;2022-10-16T05:18:04;101206.48;;;12.19;79.74
58967;BME280;44744;51.894;5.080;2022-10-16T05:19:07;101206.67;;;12.19;79.70
58967;BME280;44744;51.894;5.080;2022-10-16T05:20:07;101205.11;;;12.18;79.81
58967;BME280;44744;51.894;5.080;2022-10-16T05:21:08;101208.34;;;12.18;79.79
58967;BME280;44744;51.894;5.080;2022-10-16T05:22:08;101210.80;;;12.18;79.77
58967;BME280;44744;51.894;5.080;2022-10-16T05:23:08;101210.66;;;12.17;79.82
58967;BME280;44744;51.894;5.080;2022-10-16T05:24:09;101213.73;;;12.16;79.91
58967;BME280;44744;51.894;5.080;2022-10-16T05:25:09;101213.52;;;12.17;79.86
58967;BME280;44744;51.894;5.080;2022-10-16T05:26:09;101216.41;;;12.16;79.86
58967;BME280;44744;51.894;5.080;2022-10-16T05:27:10;101213.20;;;12.16;79.83
58967;BME280;44744;51.894;5.080;2022-10-16T05:28:10;101216.58;;;12.17;79.87
58967;BME280;44744;51.894;5.080;2022-10-16T05:29:10;101216.91;;;12.17;80.08
58967;BME280;44744;51.894;5.080;2022-10-16T05:30:11;101216.58;;;12.16;79.99
58967;BME280;44744;51.894;5.080;2022-10-16T05:31:11;101215.58;;;12.15;79.94
58967;BME280;44744;51.894;5.080;2022-10-16T05:32:11;101219.46;;;12.15;79.97
58967;BME280;44744;51.894;5.080;2022-10-16T05:33:11;101217.15;;;12.16;79.99
58967;BME280;44744;51.894;5.080;2022-10-16T05:34:12;101220.02;;;12.15;80.08
58967;BME280;44744;51.894;5.080;2022-10-16T05:35:12;101223.76;;;12.15;80.07
58967;BME280;44744;51.894;5.080;2022-10-16T05:36:13;101225.02;;;12.14;80.03
58967;BME280;44744;51.894;5.080;2022-10-16T05:37:13;101223.42;;;12.14;80.19